sensor_id;sensor_type;location;lat;lon;timestamp;temperature;humidity
20856;DHT22;63058;49.424;8.420;2023-03-20T00:00:05;14.10;81.40
20856;DHT22;63058;49.424;8.420;2023-03-20T00:02:33;14.10;81.30
20856;DHT22;63058;49.424;8.420;2023-03-20T00:04:59;14.00;81.50
20856;DHT22;63058;49.424;8.420;2023-03-20T00:07:25;13.90;81.50
20856;DHT22;63058;49.424;8.420;2023-03-20T00:09:50;13.90;81.60
20856;DHT22;63058;49.424;8.420;2023-03-20T00:12:23;13.90;81.90
20856;DHT22;63058;49.424;8.420;2023-03-20T00:14:50;13.80;82.40
20856;DHT22;63058;49.424;8.420;2023-03-20T00:17:19;13.80;82.10
20856;DHT22;63058;49.424;8.420;2023-03-20T00:19:45;13.80;82.20
20856;DHT22;63058;49.424;8.420;2023-03-20T00:22:10;13.80;82.20
20856;DHT22;63058;49.424;8.420;2023-03-20T00:24:37;13.80;82.40
20856;DHT22;63058;49.424;8.420;2023-03-20T00:27:02;13.80;82.40
20856;DHT22;63058;49.424;8.420;2023-03-20T00:29:31;13.80;82.50
20856;DHT22;63058;49.424;8.420;2023-03-20T00:31:57;13.80;82.50
20856;DHT22;63058;49.424;8.420;2023-03-20T00:34:25;13.90;82.60
20856;DHT22;63058;49.424;8.420;2023-03-20T00:36:53;13.90;82.70
20856;DHT22;63058;49.424;8.420;2023-03-20T00:39:20;13.90;82.60
20856;DHT22;63058;49.424;8.420;2023-03-20T00:42:00;13.90;82.60
20856;DHT22;63058;49.424;8.420;2023-03-20T00:44:39;13.90;83.00
20856;DHT22;63058;49.424;8.420;2023-03-20T00:47:18;13.90;82.70
20856;DHT22;63058;49.424;8.420;2023-03-20T00:49:46;13.90;82.90
20856;DHT22;63058;49.424;8.420;2023-03-20T00:52:18;13.90;82.70
20856;DHT22;63058;49.424;8.420;2023-03-20T00:54:44;13.80;82.90
20856;DHT22;63058;49.424;8.420;2023-03-20T00:59:53;13.70;83.00
20856;DHT22;63058;49.424;8.420;2023-03-20T01:02:23;13.70;83.20
20856;DHT22;63058;49.424;8.420;2023-03-20T01:04:51;13.70;83.00
20856;DHT22;63058;49.424;8.420;2023-03-20T01:07:17;13.70;83.00
20856;DHT22;63058;49.424;8.420;2023-03-20T01:09:43;13.70;83.20
20856;DHT22;63058;49.424;8.420;2023-03-20T01:12:11;13.70;83.30
20856;DHT22;63058;49.424;8.420;2023-03-20T01:14:37;13.60;83.40
20856;DHT22;63058;49.424;8.420;2023-03-20T01:17:03;13.60;83.40
20856;DHT22;63058;49.424;8.420;2023-03-20T01:19:29;13.60;83.30
20856;DHT22;63058;49.424;8.420;2023-03-20T01:21:54;13.60;83.40
20856;DHT22;63058;49.424;8.420;2023-03-20T01:24:21;13.60;83.40
20856;DHT22;63058;49.424;8.420;2023-03-20T01:26:46;13.60;83.60
20856;DHT22;63058;49.424;8.420;2023-03-20T01:29:24;13.50;83.70
20856;DHT22;63058;49.424;8.420;2023-03-20T01:31:52;13.50;84.40
20856;DHT22;63058;49.424;8.420;2023-03-20T01:34:18;13.50;83.80
20856;DHT22;63058;49.424;8.420;2023-03-20T01:36:52;13.50;83.80
20856;DHT22;63058;49.424;8.420;2023-03-20T01:39:19;13.50;84.20
20856;DHT22;63058;49.424;8.420;2023-03-20T01:41:47;13.60;84.20
20856;DHT22;63058;49.424;8.420;2023-03-20T01:44:28;13.60;84.10
20856;DHT22;63058;49.424;8.420;2023-03-20T01:46:54;13.60;84.30
20856;DHT22;63058;49.424;8.420;2023-03-20T01:51:47;13.70;84.00
20856;DHT22;63058;49.424;8.420;2023-03-20T01:54:27;13.60;84.10
20856;DHT22;63058;49.424;8.420;2023-03-20T01:57:03;13.70;84.50
20856;DHT22;63058;49.424;8.420;2023-03-20T01:59:30;13.70;84.30
20856;DHT22;63058;49.424;8.420;2023-03-20T02:01:59;13.70;83.80
20856;DHT22;63058;49.424;8.420;2023-03-20T02:04:33;13.70;84.00
20856;DHT22;63058;49.424;8.420;2023-03-20T02:07:00;13.70;84.30
20856;DHT22;63058;49.424;8.420;2023-03-20T02:09:25;13.70;84.10
20856;DHT22;63058;49.424;8.420;2023-03-20T02:11:52;13.70;84.00
20856;DHT22;63058;49.424;8.420;2023-03-20T02:14:19;13.70;84.10
20856;DHT22;63058;49.424;8.420;2023-03-20T02:16:46;13.70;84.20
20856;DHT22;63058;49.424;8.420;2023-03-20T02:19:28;13.70;84.30
20856;DHT22;63058;49.424;8.420;2023-03-20T02:30:45;13.60;84.50
20856;DHT22;63058;49.424;8.420;2023-03-20T02:36:06;13.40;84.60
20856;DHT22;63058;49.424;8.420;2023-03-20T02:44:01;13.40;84.60
20856;DHT22;63058;49.424;8.420;2023-03-20T02:54:56;13.20;85.90
20856;DHT22;63058;49.424;8.420;2023-03-20T03:00:08;13.20;85.90
20856;DHT22;63058;49.424;8.420;2023-03-20T03:02:51;13.20;85.70
20856;DHT22;63058;49.424;8.420;2023-03-20T03:05:24;13.20;85.90
20856;DHT22;63058;49.424;8.420;2023-03-20T03:07:55;13.30;85.70
20856;DHT22;63058;49.424;8.420;2023-03-20T03:10:25;13.30;85.80
20856;DHT22;63058;49.424;8.420;2023-03-20T03:12:52;13.30;85.70
20856;DHT22;63058;49.424;8.420;2023-03-20T03:15:32;13.30;85.70
20856;DHT22;63058;49.424;8.420;2023-03-20T03:17:59;13.30;86.30
20856;DHT22;63058;49.424;8.420;2023-03-20T03:20:29;13.30;85.70
20856;DHT22;63058;49.424;8.420;2023-03-20T03:22:57;13.30;85.90
20856;DHT22;63058;49.424;8.420;2023-03-20T03:25:26;13.30;85.70
20856;DHT22;63058;49.424;8.420;2023-03-20T03:30:41;13.30;86.10
20856;DHT22;63058;49.424;8.420;2023-03-20T03:33:15;13.30;85.80
20856;DHT22;63058;49.424;8.420;2023-03-20T03:35:42;13.40;86.00
20856;DHT22;63058;49.424;8.420;2023-03-20T03:49:34;13.50;85.90
20856;DHT22;63058;49.424;8.420;2023-03-20T03:52:14;13.60;85.60
20856;DHT22;63058;49.424;8.420;2023-03-20T03:54:47;13.50;86.60
20856;DHT22;63058;49.424;8.420;2023-03-20T03:57:16;13.50;85.60
20856;DHT22;63058;49.424;8.420;2023-03-20T03:59:48;13.50;85.50
20856;DHT22;63058;49.424;8.420;2023-03-20T04:02:16;13.50;85.60
20856;DHT22;63058;49.424;8.420;2023-03-20T04:04:46;13.60;85.70
20856;DHT22;63058;49.424;8.420;2023-03-20T04:07:15;13.50;85.70
20856;DHT22;63058;49.424;8.420;2023-03-20T04:09:40;13.50;85.80
20856;DHT22;63058;49.424;8.420;2023-03-20T04:12:36;13.50;85.60
20856;DHT22;63058;49.424;8.420;2023-03-20T04:15:04;13.50;86.50
20856;DHT22;63058;49.424;8.420;2023-03-20T04:17:30;13.50;85.90
20856;DHT22;63058;49.424;8.420;2023-03-20T04:19:56;13.40;85.80
20856;DHT22;63058;49.424;8.420;2023-03-20T04:22:22;13.40;85.90
20856;DHT22;63058;49.424;8.420;2023-03-20T04:24:47;13.40;85.90
20856;DHT22;63058;49.424;8.420;2023-03-20T04:27:13;13.40;86.00
20856;DHT22;63058;49.424;8.420;2023-03-20T04:29:39;13.40;86.10
20856;DHT22;63058;49.424;8.420;2023-03-20T04:32:05;13.40;86.10
20856;DHT22;63058;49.424;8.420;2023-03-20T04:34:31;13.40;86.20
20856;DHT22;63058;49.424;8.420;2023-03-20T04:36:57;13.40;86.20
20856;DHT22;63058;49.424;8.420;2023-03-20T04:39:25;13.40;86.20
20856;DHT22;63058;49.424;8.420;2023-03-20T04:41:51;13.40;86.20
20856;DHT22;63058;49.424;8.420;2023-03-20T04:44:16;13.40;86.30
20856;DHT22;63058;49.424;8.420;2023-03-20T04:46:42;13.40;86.30
20856;DHT22;63058;49.424;8.420;2023-03-20T04:49:07;13.40;86.20
20856;DHT22;63058;49.424;8.420;2023-03-20T04:51:33;13.40;86.30
20856;DHT22;63058;49.424;8.420;2023-03-20T04:53:58;13.40;86.20
20856;DHT22;63058;49.424;8.420;2023-03-20T04:56:24;13.40;86.30
20856;DHT22;63058;49.424;8.420;2023-03-20T04:58:50;13.40;86.40
20856;DHT22;63058;49.424;8.420;2023-03-20T05:01:15;13.40;86.40
20856;DHT22;63058;49.424;8.420;2023-03-20T05:03:41;13.40;86.40
20856;DHT22;63058;49.424;8.420;2023-03-20T05:06:07;13.40;86.40
20856;DHT22;63058;49.424;8.420;2023-03-20T05:08:32;13.40;86.50
20856;DHT22;63058;49.424;8.420;2023-03-20T05:10:58;13.40;86.50
20856;DHT22;63058;49.424;8.420;2023-03-20T05:13:24;13.40;86.50
20856;DHT22;63058;49.424;8.420;2023-03-20T05:15:49;13.40;86.70
20856;DHT22;63058;49.424;8.420;2023-03-20T05:18:15;13.30;86.50
20856;DHT22;63058;49.424;8.420;2023-03-20T05:20:41;13.30;86.70
20856;DHT22;63058;49.424;8.420;2023-03-20T05:23:06;13.30;86.70
20856;DHT22;63058;49.424;8.420;2023-03-20T05:25:32;13.30;86.70
20856;DHT22;63058;49.424;8.420;2023-03-20T05:27:57;13.30;86.90
20856;DHT22;63058;49.424;8.420;2023-03-20T05:30:23;13.20;86.90
20856;DHT22;63058;49.424;8.420;2023-03-20T05:32:49;13.20;87.00
20856;DHT22;63058;49.424;8.420;2023-03-20T05:35:16;13.10;87.20
20856;DHT22;63058;49.424;8.420;2023-03-20T05:37:42;13.10;87.30
20856;DHT22;63058;49.424;8.420;2023-03-20T05:40:11;13.10;87.40
20856;DHT22;63058;49.424;8.420;2023-03-20T05:42:37;13.00;87.50
20856;DHT22;63058;49.424;8.420;2023-03-20T05:45:03;13.10;87.50
20856;DHT22;63058;49.424;8.420;2023-03-20T05:47:29;13.00;87.60
20856;DHT22;63058;49.424;8.420;2023-03-20T05:49:55;13.00;87.60
20856;DHT22;63058;49.424;8.420;2023-03-20T05:52:21;13.00;87.60
20856;DHT22;63058;49.424;8.420;2023-03-20T05:54:47;13.10;87.80
20856;DHT22;63058;49.424;8.420;2023-03-20T05:57:13;13.00;87.80
20856;DHT22;63058;49.424;8.420;2023-03-20T05:59:38;13.10;88.00
20856;DHT22;63058;49.424;8.420;2023-03-20T06:02:04;13.00;88.00
20856;DHT22;63058;49.424;8.420;2023-03-20T06:04:31;13.10;88.20
20856;DHT22;63058;49.424;8.420;2023-03-20T06:06:59;13.10;88.50
20856;DHT22;63058;49.424;8.420;2023-03-20T06:09:25;13.10;88.30
20856;DHT22;63058;49.424;8.420;2023-03-20T06:11:50;13.10;88.40
20856;DHT22;63058;49.424;8.420;2023-03-20T06:14:16;13.20;88.30
20856;DHT22;63058;49.424;8.420;2023-03-20T06:16:41;13.20;88.30
20856;DHT22;63058;49.424;8.420;2023-03-20T06:19:07;13.10;89.00
20856;DHT22;63058;49.424;8.420;2023-03-20T06:21:33;13.10;89.20
20856;DHT22;63058;49.424;8.420;2023-03-20T06:23:58;13.10;88.40
20856;DHT22;63058;49.424;8.420;2023-03-20T06:26:24;13.10;88.40
20856;DHT22;63058;49.424;8.420;2023-03-20T06:28:50;13.10;88.50
20856;DHT22;63058;49.424;8.420;2023-03-20T06:31:16;13.10;88.40
20856;DHT22;63058;49.424;8.420;2023-03-20T06:33:42;13.10;88.60
20856;DHT22;63058;49.424;8.420;2023-03-20T06:36:08;13.10;88.70
20856;DHT22;63058;49.424;8.420;2023-03-20T06:38:33;13.10;88.80
20856;DHT22;63058;49.424;8.420;2023-03-20T06:40:59;13.10;88.80
20856;DHT22;63058;49.424;8.420;2023-03-20T06:43:25;13.10;88.80
20856;DHT22;63058;49.424;8.420;2023-03-20T06:45:51;13.10;88.80
20856;DHT22;63058;49.424;8.420;2023-03-20T06:48:16;13.10;88.80
20856;DHT22;63058;49.424;8.420;2023-03-20T06:50:49;13.10;88.90
20856;DHT22;63058;49.424;8.420;2023-03-20T06:53:15;13.10;89.20
20856;DHT22;63058;49.424;8.420;2023-03-20T06:55:42;13.10;89.20
20856;DHT22;63058;49.424;8.420;2023-03-20T06:58:07;13.10;89.30
20856;DHT22;63058;49.424;8.420;2023-03-20T07:00:33;13.10;89.40
20856;DHT22;63058;49.424;8.420;2023-03-20T07:02:59;13.10;89.50
20856;DHT22;63058;49.424;8.420;2023-03-20T07:05:24;13.20;89.50
20856;DHT22;63058;49.424;8.420;2023-03-20T07:07:50;13.10;89.30
20856;DHT22;63058;49.424;8.420;2023-03-20T07:10:16;13.20;89.30
20856;DHT22;63058;49.424;8.420;2023-03-20T07:12:42;13.20;89.30
20856;DHT22;63058;49.424;8.420;2023-03-20T07:15:08;13.20;89.50
20856;DHT22;63058;49.424;8.420;2023-03-20T07:17:35;13.20;89.50
20856;DHT22;63058;49.424;8.420;2023-03-20T07:20:02;13.20;89.60
20856;DHT22;63058;49.424;8.420;2023-03-20T07:22:29;13.20;89.80
20856;DHT22;63058;49.424;8.420;2023-03-20T07:24:56;13.20;90.00
20856;DHT22;63058;49.424;8.420;2023-03-20T07:27:22;13.30;90.10
20856;DHT22;63058;49.424;8.420;2023-03-20T07:29:48;13.30;90.20
20856;DHT22;63058;49.424;8.420;2023-03-20T07:32:13;13.40;90.30
20856;DHT22;63058;49.424;8.420;2023-03-20T07:34:39;13.50;90.40
20856;DHT22;63058;49.424;8.420;2023-03-20T07:37:05;13.60;90.40
20856;DHT22;63058;49.424;8.420;2023-03-20T07:39:31;13.60;90.40
20856;DHT22;63058;49.424;8.420;2023-03-20T07:41:57;13.80;90.50
20856;DHT22;63058;49.424;8.420;2023-03-20T07:44:22;13.80;90.40
20856;DHT22;63058;49.424;8.420;2023-03-20T07:46:48;13.90;90.30
20856;DHT22;63058;49.424;8.420;2023-03-20T07:49:15;13.90;90.20
20856;DHT22;63058;49.424;8.420;2023-03-20T07:51:43;14.00;90.20
20856;DHT22;63058;49.424;8.420;2023-03-20T07:54:09;14.00;90.00
20856;DHT22;63058;49.424;8.420;2023-03-20T07:56:35;14.10;90.00
20856;DHT22;63058;49.424;8.420;2023-03-20T07:59:01;14.10;90.00
20856;DHT22;63058;49.424;8.420;2023-03-20T08:01:26;14.00;89.80
20856;DHT22;63058;49.424;8.420;2023-03-20T08:03:52;14.10;89.90
20856;DHT22;63058;49.424;8.420;2023-03-20T08:06:18;14.00;89.80
20856;DHT22;63058;49.424;8.420;2023-03-20T08:08:43;14.00;89.90
20856;DHT22;63058;49.424;8.420;2023-03-20T08:11:10;14.00;89.90
20856;DHT22;63058;49.424;8.420;2023-03-20T08:13:36;14.00;90.00
20856;DHT22;63058;49.424;8.420;2023-03-20T08:16:02;14.00;90.00
20856;DHT22;63058;49.424;8.420;2023-03-20T08:18:28;14.00;90.00
20856;DHT22;63058;49.424;8.420;2023-03-20T08:20:54;14.00;90.10
20856;DHT22;63058;49.424;8.420;2023-03-20T08:23:19;14.00;90.10
20856;DHT22;63058;49.424;8.420;2023-03-20T08:25:49;14.00;90.10
20856;DHT22;63058;49.424;8.420;2023-03-20T08:28:16;14.10;90.30
20856;DHT22;63058;49.424;8.420;2023-03-20T08:30:42;14.10;90.30
20856;DHT22;63058;49.424;8.420;2023-03-20T08:33:08;14.20;90.30
20856;DHT22;63058;49.424;8.420;2023-03-20T08:35:33;14.20;90.30
20856;DHT22;63058;49.424;8.420;2023-03-20T08:38:00;14.30;90.40
20856;DHT22;63058;49.424;8.420;2023-03-20T08:40:26;14.30;90.30
20856;DHT22;63058;49.424;8.420;2023-03-20T08:42:51;14.40;90.30
20856;DHT22;63058;49.424;8.420;2023-03-20T08:45:17;14.40;90.20
20856;DHT22;63058;49.424;8.420;2023-03-20T08:47:46;14.40;90.20
20856;DHT22;63058;49.424;8.420;2023-03-20T08:50:13;14.40;90.20
20856;DHT22;63058;49.424;8.420;2023-03-20T08:52:39;14.40;90.10
20856;DHT22;63058;49.424;8.420;2023-03-20T08:55:12;14.40;90.10
20856;DHT22;63058;49.424;8.420;2023-03-20T08:57:39;14.40;90.00
20856;DHT22;63058;49.424;8.420;2023-03-20T09:00:06;14.40;90.00
20856;DHT22;63058;49.424;8.420;2023-03-20T09:02:32;14.40;90.00
20856;DHT22;63058;49.424;8.420;2023-03-20T09:04:58;14.40;90.00
20856;DHT22;63058;49.424;8.420;2023-03-20T09:07:24;14.40;90.00
20856;DHT22;63058;49.424;8.420;2023-03-20T09:09:49;14.40;90.00
20856;DHT22;63058;49.424;8.420;2023-03-20T09:12:16;14.40;90.00
20856;DHT22;63058;49.424;8.420;2023-03-20T09:14:44;14.40;90.00
20856;DHT22;63058;49.424;8.420;2023-03-20T09:17:10;14.40;90.10
20856;DHT22;63058;49.424;8.420;2023-03-20T09:19:36;14.50;90.10
20856;DHT22;63058;49.424;8.420;2023-03-20T09:22:06;14.50;90.20
20856;DHT22;63058;49.424;8.420;2023-03-20T09:24:33;14.50;90.30
20856;DHT22;63058;49.424;8.420;2023-03-20T09:26:58;14.60;90.20
20856;DHT22;63058;49.424;8.420;2023-03-20T09:29:25;14.70;90.20
20856;DHT22;63058;49.424;8.420;2023-03-20T09:31:52;14.70;90.20
20856;DHT22;63058;49.424;8.420;2023-03-20T09:34:17;14.80;90.20
20856;DHT22;63058;49.424;8.420;2023-03-20T09:36:43;14.80;90.10
20856;DHT22;63058;49.424;8.420;2023-03-20T09:39:09;14.90;90.10
20856;DHT22;63058;49.424;8.420;2023-03-20T09:41:35;14.90;90.00
20856;DHT22;63058;49.424;8.420;2023-03-20T09:44:43;15.00;90.10
20856;DHT22;63058;49.424;8.420;2023-03-20T09:52:30;15.20;89.80
20856;DHT22;63058;49.424;8.420;2023-03-20T09:55:01;15.30;90.00
20856;DHT22;63058;49.424;8.420;2023-03-20T09:57:33;15.30;90.00
20856;DHT22;63058;49.424;8.420;2023-03-20T10:00:07;15.40;89.60
20856;DHT22;63058;49.424;8.420;2023-03-20T10:02:44;15.40;89.10
20856;DHT22;63058;49.424;8.420;2023-03-20T10:05:22;15.50;89.10
20856;DHT22;63058;49.424;8.420;2023-03-20T10:07:48;15.50;88.80
20856;DHT22;63058;49.424;8.420;2023-03-20T10:10:15;15.50;89.10
20856;DHT22;63058;49.424;8.420;2023-03-20T10:13:08;15.50;89.10
20856;DHT22;63058;49.424;8.420;2023-03-20T10:18:23;15.60;89.00
20856;DHT22;63058;49.424;8.420;2023-03-20T10:21:01;15.70;89.20
20856;DHT22;63058;49.424;8.420;2023-03-20T10:26:16;15.80;88.70
20856;DHT22;63058;49.424;8.420;2023-03-20T10:28:51;15.90;88.60
20856;DHT22;63058;49.424;8.420;2023-03-20T10:37:10;16.30;89.10
20856;DHT22;63058;49.424;8.420;2023-03-20T10:42:19;16.70;89.10
20856;DHT22;63058;49.424;8.420;2023-03-20T10:44:57;16.90;89.40
20856;DHT22;63058;49.424;8.420;2023-03-20T10:47:27;17.20;88.20
20856;DHT22;63058;49.424;8.420;2023-03-20T10:49:58;17.50;90.00
20856;DHT22;63058;49.424;8.420;2023-03-20T10:52:30;17.90;89.10
20856;DHT22;63058;49.424;8.420;2023-03-20T10:55:03;18.30;88.50
20856;DHT22;63058;49.424;8.420;2023-03-20T10:57:35;18.70;86.30
20856;DHT22;63058;49.424;8.420;2023-03-20T11:00:04;19.00;84.50
20856;DHT22;63058;49.424;8.420;2023-03-20T11:02:35;19.10;83.90
20856;DHT22;63058;49.424;8.420;2023-03-20T11:07:51;19.60;84.10
20856;DHT22;63058;49.424;8.420;2023-03-20T11:10:25;19.90;82.50
20856;DHT22;63058;49.424;8.420;2023-03-20T11:12:51;20.00;80.90
20856;DHT22;63058;49.424;8.420;2023-03-20T11:15:26;20.00;78.70
20856;DHT22;63058;49.424;8.420;2023-03-20T11:17:59;19.90;76.80
20856;DHT22;63058;49.424;8.420;2023-03-20T11:20:31;19.70;76.80
20856;DHT22;63058;49.424;8.420;2023-03-20T11:23:00;19.50;77.20
20856;DHT22;63058;49.424;8.420;2023-03-20T11:25:33;19.30;77.40
20856;DHT22;63058;49.424;8.420;2023-03-20T11:31:05;18.90;76.00
20856;DHT22;63058;49.424;8.420;2023-03-20T11:33:35;18.80;77.10
20856;DHT22;63058;49.424;8.420;2023-03-20T11:36:01;18.80;77.40
20856;DHT22;63058;49.424;8.420;2023-03-20T11:38:29;18.80;78.40
20856;DHT22;63058;49.424;8.420;2023-03-20T11:40:55;18.80;78.70
20856;DHT22;63058;49.424;8.420;2023-03-20T11:43:23;19.00;79.60
20856;DHT22;63058;49.424;8.420;2023-03-20T11:45:55;19.20;79.50
20856;DHT22;63058;49.424;8.420;2023-03-20T11:48:35;19.30;78.50
20856;DHT22;63058;49.424;8.420;2023-03-20T11:51:06;19.50;79.10
20856;DHT22;63058;49.424;8.420;2023-03-20T11:53:36;19.70;78.70
20856;DHT22;63058;49.424;8.420;2023-03-20T11:56:24;19.80;78.00
20856;DHT22;63058;49.424;8.420;2023-03-20T11:59:05;20.00;77.20
20856;DHT22;63058;49.424;8.420;2023-03-20T12:01:40;20.10;76.60
20856;DHT22;63058;49.424;8.420;2023-03-20T12:04:16;20.40;78.10
20856;DHT22;63058;49.424;8.420;2023-03-20T12:09:39;20.90;78.40
20856;DHT22;63058;49.424;8.420;2023-03-20T12:12:12;21.30;78.20
20856;DHT22;63058;49.424;8.420;2023-03-20T12:17:51;21.80;75.50
20856;DHT22;63058;49.424;8.420;2023-03-20T12:26:23;21.50;68.90
20856;DHT22;63058;49.424;8.420;2023-03-20T12:32:09;21.30;70.70
20856;DHT22;63058;49.424;8.420;2023-03-20T12:34:41;21.20;69.60
20856;DHT22;63058;49.424;8.420;2023-03-20T12:37:09;21.00;68.70
20856;DHT22;63058;49.424;8.420;2023-03-20T12:39:37;20.80;69.10
20856;DHT22;63058;49.424;8.420;2023-03-20T12:50:40;20.10;67.00
20856;DHT22;63058;49.424;8.420;2023-03-20T12:56:19;19.90;67.00
20856;DHT22;63058;49.424;8.420;2023-03-20T12:58:58;19.80;67.30
20856;DHT22;63058;49.424;8.420;2023-03-20T13:07:00;19.60;64.70
20856;DHT22;63058;49.424;8.420;2023-03-20T13:10:04;19.60;67.30
20856;DHT22;63058;49.424;8.420;2023-03-20T13:16:01;19.80;66.60
20856;DHT22;63058;49.424;8.420;2023-03-20T13:21:37;20.00;63.80
20856;DHT22;63058;49.424;8.420;2023-03-20T13:27:01;20.10;65.50
20856;DHT22;63058;49.424;8.420;2023-03-20T13:35:19;20.40;65.00
20856;DHT22;63058;49.424;8.420;2023-03-20T13:38:07;20.40;64.90
20856;DHT22;63058;49.424;8.420;2023-03-20T13:40:39;20.40;64.70
20856;DHT22;63058;49.424;8.420;2023-03-20T13:45:40;20.30;61.50
20856;DHT22;63058;49.424;8.420;2023-03-20T13:48:23;20.20;63.10
20856;DHT22;63058;49.424;8.420;2023-03-20T13:56:07;20.20;61.40
20856;DHT22;63058;49.424;8.420;2023-03-20T13:58:51;20.20;61.30
20856;DHT22;63058;49.424;8.420;2023-03-20T14:04:15;20.10;60.60
20856;DHT22;63058;49.424;8.420;2023-03-20T14:06:43;20.00;57.90
20856;DHT22;63058;49.424;8.420;2023-03-20T14:12:12;20.20;60.70
20856;DHT22;63058;49.424;8.420;2023-03-20T14:14:55;20.40;61.80
20856;DHT22;63058;49.424;8.420;2023-03-20T14:17:29;20.60;60.00
20856;DHT22;63058;49.424;8.420;2023-03-20T14:19:56;20.80;56.60
20856;DHT22;63058;49.424;8.420;2023-03-20T14:22:32;21.00;58.30
20856;DHT22;63058;49.424;8.420;2023-03-20T14:25:04;21.00;55.90
20856;DHT22;63058;49.424;8.420;2023-03-20T14:27:35;21.20;56.60
20856;DHT22;63058;49.424;8.420;2023-03-20T14:35:42;21.60;56.70
20856;DHT22;63058;49.424;8.420;2023-03-20T14:38:25;21.80;55.70
20856;DHT22;63058;49.424;8.420;2023-03-20T14:52:11;21.80;52.20
20856;DHT22;63058;49.424;8.420;2023-03-20T14:54:41;21.70;53.30
20856;DHT22;63058;49.424;8.420;2023-03-20T14:57:09;21.60;54.20
20856;DHT22;63058;49.424;8.420;2023-03-20T14:59:35;21.50;54.10
20856;DHT22;63058;49.424;8.420;2023-03-20T15:02:01;21.40;54.10
20856;DHT22;63058;49.424;8.420;2023-03-20T15:07:05;21.20;54.40
20856;DHT22;63058;49.424;8.420;2023-03-20T15:09:36;21.10;54.10
20856;DHT22;63058;49.424;8.420;2023-03-20T15:12:05;20.90;54.00
20856;DHT22;63058;49.424;8.420;2023-03-20T15:14:44;20.70;52.90
20856;DHT22;63058;49.424;8.420;2023-03-20T15:17:37;20.60;53.10
20856;DHT22;63058;49.424;8.420;2023-03-20T15:22:58;20.00;53.20
20856;DHT22;63058;49.424;8.420;2023-03-20T15:25:38;19.80;52.60
20856;DHT22;63058;49.424;8.420;2023-03-20T15:28:05;19.50;52.00
20856;DHT22;63058;49.424;8.420;2023-03-20T15:30:32;19.30;53.10
20856;DHT22;63058;49.424;8.420;2023-03-20T15:32:58;19.10;53.20
20856;DHT22;63058;49.424;8.420;2023-03-20T15:35:25;19.00;53.80
20856;DHT22;63058;49.424;8.420;2023-03-20T15:37:52;18.80;53.60
20856;DHT22;63058;49.424;8.420;2023-03-20T15:40:26;18.70;53.50
20856;DHT22;63058;49.424;8.420;2023-03-20T15:43:02;18.50;53.80
20856;DHT22;63058;49.424;8.420;2023-03-20T15:45:33;18.40;53.80
20856;DHT22;63058;49.424;8.420;2023-03-20T15:48:13;18.30;53.90
20856;DHT22;63058;49.424;8.420;2023-03-20T15:50:41;18.20;54.00
20856;DHT22;63058;49.424;8.420;2023-03-20T15:53:14;18.10;53.70
20856;DHT22;63058;49.424;8.420;2023-03-20T15:55:41;18.00;54.50
20856;DHT22;63058;49.424;8.420;2023-03-20T15:58:11;17.90;54.50
20856;DHT22;63058;49.424;8.420;2023-03-20T16:00:42;17.80;54.50
20856;DHT22;63058;49.424;8.420;2023-03-20T16:03:13;17.70;54.40
20856;DHT22;63058;49.424;8.420;2023-03-20T16:05:42;17.60;54.40
20856;DHT22;63058;49.424;8.420;2023-03-20T16:08:26;17.50;54.90
20856;DHT22;63058;49.424;8.420;2023-03-20T16:10:58;17.50;54.50
20856;DHT22;63058;49.424;8.420;2023-03-20T16:13:26;17.40;54.90
20856;DHT22;63058;49.424;8.420;2023-03-20T16:15:53;17.30;55.00
20856;DHT22;63058;49.424;8.420;2023-03-20T16:18:19;17.30;55.30
20856;DHT22;63058;49.424;8.420;2023-03-20T16:20:53;17.20;54.70
20856;DHT22;63058;49.424;8.420;2023-03-20T16:23:36;17.10;54.40
20856;DHT22;63058;49.424;8.420;2023-03-20T16:26:05;17.00;54.10
20856;DHT22;63058;49.424;8.420;2023-03-20T16:28:34;17.00;53.50
20856;DHT22;63058;49.424;8.420;2023-03-20T16:31:17;16.90;54.10
20856;DHT22;63058;49.424;8.420;2023-03-20T16:33:44;16.80;54.20
20856;DHT22;63058;49.424;8.420;2023-03-20T16:36:30;16.80;54.30
20856;DHT22;63058;49.424;8.420;2023-03-20T16:39:06;16.60;54.10
20856;DHT22;63058;49.424;8.420;2023-03-20T16:41:34;16.60;53.80
20856;DHT22;63058;49.424;8.420;2023-03-20T16:44:07;16.50;53.80
20856;DHT22;63058;49.424;8.420;2023-03-20T16:46:33;16.40;53.80
20856;DHT22;63058;49.424;8.420;2023-03-20T16:52:09;16.30;54.00
20856;DHT22;63058;49.424;8.420;2023-03-20T16:54:37;16.30;54.50
20856;DHT22;63058;49.424;8.420;2023-03-20T16:57:07;16.20;54.80
20856;DHT22;63058;49.424;8.420;2023-03-20T16:59:37;16.20;54.50
20856;DHT22;63058;49.424;8.420;2023-03-20T17:02:10;16.20;54.40
20856;DHT22;63058;49.424;8.420;2023-03-20T17:04:38;16.10;54.70
20856;DHT22;63058;49.424;8.420;2023-03-20T17:07:08;16.10;54.80
20856;DHT22;63058;49.424;8.420;2023-03-20T17:09:53;16.00;54.90
20856;DHT22;63058;49.424;8.420;2023-03-20T17:12:19;16.00;55.10
20856;DHT22;63058;49.424;8.420;2023-03-20T17:14:44;16.00;55.30
20856;DHT22;63058;49.424;8.420;2023-03-20T17:17:12;15.90;55.30
20856;DHT22;63058;49.424;8.420;2023-03-20T17:19:38;15.90;55.20
20856;DHT22;63058;49.424;8.420;2023-03-20T17:22:13;15.90;55.40
20856;DHT22;63058;49.424;8.420;2023-03-20T17:24:39;15.90;55.40
20856;DHT22;63058;49.424;8.420;2023-03-20T17:27:05;15.90;55.60
20856;DHT22;63058;49.424;8.420;2023-03-20T17:29:30;15.80;55.40
20856;DHT22;63058;49.424;8.420;2023-03-20T17:31:56;15.80;55.40
20856;DHT22;63058;49.424;8.420;2023-03-20T17:34:22;15.80;54.90
20856;DHT22;63058;49.424;8.420;2023-03-20T17:36:48;15.70;54.80
20856;DHT22;63058;49.424;8.420;2023-03-20T17:39:18;15.70;54.80
20856;DHT22;63058;49.424;8.420;2023-03-20T17:41:45;15.60;54.50
20856;DHT22;63058;49.424;8.420;2023-03-20T17:44:11;15.60;55.00
20856;DHT22;63058;49.424;8.420;2023-03-20T17:46:37;15.60;55.00
20856;DHT22;63058;49.424;8.420;2023-03-20T17:49:11;15.50;55.20
20856;DHT22;63058;49.424;8.420;2023-03-20T17:51:37;15.50;54.90
20856;DHT22;63058;49.424;8.420;2023-03-20T17:54:03;15.40;55.20
20856;DHT22;63058;49.424;8.420;2023-03-20T17:56:29;15.40;55.30
20856;DHT22;63058;49.424;8.420;2023-03-20T17:58:58;15.40;55.50
20856;DHT22;63058;49.424;8.420;2023-03-20T18:01:23;15.40;55.40
20856;DHT22;63058;49.424;8.420;2023-03-20T18:03:49;15.30;55.40
20856;DHT22;63058;49.424;8.420;2023-03-20T18:06:22;15.30;55.60
20856;DHT22;63058;49.424;8.420;2023-03-20T18:08:48;15.30;55.60
20856;DHT22;63058;49.424;8.420;2023-03-20T18:11:14;15.30;55.70
20856;DHT22;63058;49.424;8.420;2023-03-20T18:13:40;15.30;55.80
20856;DHT22;63058;49.424;8.420;2023-03-20T18:16:10;15.20;55.80
20856;DHT22;63058;49.424;8.420;2023-03-20T18:18:38;15.20;55.90
20856;DHT22;63058;49.424;8.420;2023-03-20T18:21:04;15.20;55.90